This is the latest recevied weather packets stored in our database for station/object IZ2XCK-13. If no packets are shown the sender has not sent any weather packets the latest 10 day(s).
| Time | Temp. | Humidity | Pressure | Rain* | Wind** | Luminosity | Snow |
|---|---|---|---|---|---|---|---|
| 1777704315 | 12.22° C | 61% | 1028.1 hPa | - | - | - | - |
| 1777703114 | 11.67° C | 61% | 1028.2 hPa | - | - | - | - |
| 1777701914 | 11.67° C | 61% | 1028.4 hPa | - | - | - | - |
| 1777700714 | 11.11° C | 63% | 1028.4 hPa | - | - | - | - |
| 1777699513 | 10.56° C | 62% | 1028.5 hPa | - | - | - | - |
| 1777698313 | 10° C | 63% | 1028.5 hPa | - | - | - | - |
| 1777697113 | 10.56° C | 60% | 1028.4 hPa | - | - | - | - |
| 1777695912 | 10.56° C | 62% | 1028.3 hPa | - | - | - | - |
| 1777694712 | 10.56° C | 61% | 1028.3 hPa | - | - | - | - |
| 1777693512 | 10.56° C | 61% | 1028.3 hPa | - | - | - | - |
| 1777692311 | 11.11° C | 58% | 1028.3 hPa | - | - | - | - |
| 1777691111 | 10.56° C | 60% | 1028.3 hPa | - | - | - | - |
| 1777689911 | 11.11° C | 59% | 1028.3 hPa | - | - | - | - |
| 1777688711 | 10.56° C | 58% | 1028.2 hPa | - | - | - | - |
| 1777687510 | 11.11° C | 58% | 1028.2 hPa | - | - | - | - |
| 1777686310 | 11.11° C | 57% | 1028.1 hPa | - | - | - | - |
| 1777685110 | 11.11° C | 56% | 1028.2 hPa | - | - | - | - |
| 1777683909 | 12.22° C | 52% | 1028.2 hPa | - | - | - | - |
| 1777682709 | 12.22° C | 53% | 1028.3 hPa | - | - | - | - |
| 1777681509 | 11.67° C | 55% | 1028.3 hPa | - | - | - | - |
| 1777680308 | 11.67° C | 55% | 1028.2 hPa | - | - | - | - |
| 1777679108 | 12.22° C | 53% | 1028.2 hPa | - | - | - | - |
| 1777677908 | 12.22° C | 52% | 1028.1 hPa | - | - | - | - |
| 1777676707 | 12.78° C | 49% | 1028.2 hPa | - | - | - | - |
| 1777675507 | 12.78° C | 51% | 1028.3 hPa | - | - | - | - |
* Rain since midnight (hover to see other rain measurements)
** Current wind speed in m/s (hover to see current wind gust speed)